Ocean View, Delaware
Current Conditions -  °F | °C
As of 2:53 AM on Friday 24 Oct 2014 (Local Time) from KOXB Reporting Station
Few Clouds Few Clouds  
Wind Chill: 52°   Ceiling: Unl
Heat Index: 52°   Visibility: 10mi
Dew Point: 45°   Wind: 7mph
Humidity: 77%   Direction: 320°NW
Pressure: 29.84"   Gusts: NA
Location:  38.55°N, 75.09°W
Report Text: KOXB 240653Z AUTO 32006KT 10SM FEW044 11/07 A2984 RMK AO2 SLP105 T01110072 TSNO
Loading
Personal Weather Stations






























Interactive Weather Map
Tropical Storm Tracking
New forecast layout! Learn more

10-Day Weather Forecast

Advertisements
Track Severe Weather on mobile